createdAt,value
2024-02-15T00:00:07.740Z,12.21
2024-02-15T00:01:07.835Z,12.21
2024-02-15T00:02:07.865Z,12.20
2024-02-15T00:03:07.998Z,12.20
2024-02-15T00:04:08.073Z,12.21
2024-02-15T00:05:08.112Z,12.21
2024-02-15T00:06:08.241Z,12.20
2024-02-15T00:07:08.279Z,12.21
2024-02-15T00:08:08.338Z,12.20
2024-02-15T00:09:08.463Z,12.21
2024-02-15T00:10:08.539Z,12.21
2024-02-15T00:11:08.569Z,12.20
2024-02-15T00:12:08.766Z,12.21
2024-02-15T00:13:08.742Z,12.21
2024-02-15T00:14:08.828Z,12.21
2024-02-15T00:15:09.026Z,12.21
2024-02-15T00:16:08.955Z,12.22
2024-02-15T00:17:09.101Z,12.24
2024-02-15T00:18:09.349Z,12.22
2024-02-15T00:19:09.442Z,12.22
2024-02-15T00:20:09.297Z,12.22
2024-02-15T00:21:09.449Z,12.21
2024-02-15T00:22:09.464Z,12.21
2024-02-15T00:23:09.541Z,12.21
2024-02-15T00:24:09.746Z,12.20
2024-02-15T00:25:09.687Z,12.21
2024-02-15T00:26:09.783Z,12.20
2024-02-15T00:27:09.951Z,12.21
2024-02-15T00:28:09.960Z,12.21
2024-02-15T00:29:10.041Z,12.20
2024-02-15T00:30:10.162Z,12.18
2024-02-15T00:31:10.168Z,12.17
2024-02-15T00:32:10.245Z,12.18
2024-02-15T00:33:10.459Z,12.18
2024-02-15T00:34:10.681Z,12.20
2024-02-15T00:35:11.087Z,12.18
2024-02-15T00:36:10.637Z,12.17
2024-02-15T00:37:10.663Z,12.18
2024-02-15T00:38:10.789Z,12.18
2024-02-15T00:39:10.867Z,12.17
2024-02-15T00:40:10.988Z,12.17
2024-02-15T00:41:10.999Z,12.17
2024-02-15T00:42:11.184Z,12.17
2024-02-15T00:43:11.195Z,12.18
2024-02-15T00:44:11.361Z,12.18
2024-02-15T00:45:11.350Z,12.17
2024-02-15T00:46:11.382Z,12.15
2024-02-15T00:47:11.465Z,12.12
2024-02-15T00:48:11.767Z,12.13
2024-02-15T00:49:11.827Z,12.15
2024-02-15T00:50:11.849Z,12.13
2024-02-15T00:51:11.853Z,12.13
2024-02-15T00:52:11.852Z,12.13
2024-02-15T00:53:11.949Z,12.13
2024-02-15T00:54:12.070Z,12.13
2024-02-15T00:55:12.094Z,12.15
2024-02-15T00:56:12.164Z,12.15
2024-02-15T00:57:12.270Z,12.15
2024-02-15T00:58:12.304Z,12.17
2024-02-15T00:59:12.375Z,12.17
2024-02-15T01:00:12.478Z,12.15
2024-02-15T01:01:12.585Z,12.17
2024-02-15T01:02:12.585Z,12.17
2024-02-15T01:03:12.676Z,12.17
2024-02-15T01:04:12.729Z,12.17
2024-02-15T01:05:12.835Z,12.18
2024-02-15T01:06:12.959Z,12.20
2024-02-15T01:07:12.950Z,12.18
2024-02-15T01:08:13.023Z,12.20
2024-02-15T01:09:13.109Z,12.18
2024-02-15T01:10:13.171Z,12.17
2024-02-15T01:11:13.263Z,12.18
2024-02-15T01:12:13.394Z,12.18
2024-02-15T01:13:13.424Z,12.20
2024-02-15T01:14:13.496Z,12.21
2024-02-15T01:15:13.611Z,12.18
2024-02-15T01:16:13.661Z,12.21
2024-02-15T01:17:13.767Z,12.20
2024-02-15T01:18:13.960Z,12.20
2024-02-15T01:19:14.092Z,12.20
2024-02-15T01:20:14.005Z,12.18
2024-02-15T01:21:14.065Z,12.20
2024-02-15T01:22:14.185Z,12.20
2024-02-15T01:23:14.200Z,12.21
2024-02-15T01:24:14.369Z,12.20
2024-02-15T01:25:14.354Z,12.21
2024-02-15T01:26:14.440Z,12.21
2024-02-15T01:27:14.529Z,12.22
2024-02-15T01:28:14.597Z,12.21
2024-02-15T01:29:14.688Z,12.21
2024-02-15T01:30:14.776Z,12.22
2024-02-15T01:31:14.847Z,12.22
2024-02-15T01:32:14.927Z,12.21
2024-02-15T01:33:15.112Z,12.21
2024-02-15T01:34:15.282Z,12.21
2024-02-15T01:35:15.138Z,12.24
2024-02-15T01:36:15.213Z,12.22
2024-02-15T01:37:15.297Z,12.25
2024-02-15T01:38:15.368Z,12.25
2024-02-15T01:39:15.505Z,12.22
2024-02-15T01:40:15.512Z,12.22
2024-02-15T01:41:15.591Z,12.21
2024-02-15T01:42:15.749Z,12.22
2024-02-15T01:43:15.796Z,12.21
2024-02-15T01:44:15.813Z,12.22
2024-02-15T01:45:15.995Z,12.22
2024-02-15T01:46:15.939Z,12.21
2024-02-15T01:47:16.031Z,12.21
2024-02-15T01:48:16.326Z,12.20
2024-02-15T01:49:16.401Z,12.21
2024-02-15T01:50:16.277Z,12.21
2024-02-15T01:51:16.350Z,12.21
2024-02-15T01:52:16.443Z,12.21
2024-02-15T01:53:16.537Z,12.21
2024-02-15T01:54:16.657Z,12.21
2024-02-15T01:55:16.731Z,12.21
2024-02-15T01:56:16.743Z,12.22
2024-02-15T01:57:16.853Z,12.20
2024-02-15T01:58:16.897Z,12.22
2024-02-15T01:59:16.981Z,12.24
2024-02-15T02:00:17.082Z,12.21
2024-02-15T02:01:17.170Z,12.21
2024-02-15T02:02:17.191Z,12.21
2024-02-15T02:03:17.366Z,12.21
2024-02-15T02:04:17.368Z,12.20
2024-02-15T02:05:17.446Z,12.20
2024-02-15T02:06:17.574Z,12.21
2024-02-15T02:07:17.639Z,12.20
2024-02-15T02:08:17.639Z,12.21
2024-02-15T02:09:17.761Z,12.20
2024-02-15T02:10:17.833Z,12.18
2024-02-15T02:11:17.918Z,12.20
2024-02-15T02:12:18.025Z,12.18
2024-02-15T02:13:18.082Z,12.18
2024-02-15T02:14:18.163Z,12.18
2024-02-15T02:15:18.275Z,12.20
2024-02-15T02:16:18.309Z,12.20
2024-02-15T02:17:18.385Z,12.20
2024-02-15T02:18:18.521Z,12.20
2024-02-15T02:19:18.620Z,12.20
2024-02-15T02:20:18.675Z,12.20
2024-02-15T02:21:18.710Z,12.21
2024-02-15T02:22:18.797Z,12.20
2024-02-15T02:23:18.830Z,12.21
2024-02-15T02:24:18.917Z,12.20
2024-02-15T02:25:19.014Z,12.20
2024-02-15T02:26:19.060Z,12.18
2024-02-15T02:27:19.173Z,12.17
2024-02-15T02:28:19.221Z,12.18
2024-02-15T02:29:19.296Z,12.17
2024-02-15T02:30:19.424Z,12.17
2024-02-15T02:31:19.462Z,12.15
2024-02-15T02:32:19.552Z,12.13
2024-02-15T02:33:20.786Z,12.12
2024-02-15T02:34:19.779Z,12.13
2024-02-15T02:35:19.782Z,12.13
2024-02-15T02:36:19.847Z,12.12
2024-02-15T02:37:19.941Z,12.12
2024-02-15T02:38:20.047Z,12.10
2024-02-15T02:39:20.180Z,12.10
2024-02-15T02:40:20.155Z,12.10
2024-02-15T02:41:20.227Z,12.13
2024-02-15T02:42:20.351Z,12.13
2024-02-15T02:43:20.352Z,12.13
2024-02-15T02:44:20.431Z,12.13
2024-02-15T02:45:20.520Z,12.15
2024-02-15T02:46:20.585Z,12.15
2024-02-15T02:47:20.697Z,12.13
2024-02-15T02:48:20.861Z,12.13
2024-02-15T02:49:20.999Z,12.12
2024-02-15T02:50:20.920Z,12.15
2024-02-15T02:51:20.993Z,12.13
2024-02-15T02:52:21.059Z,12.12
2024-02-15T02:53:21.145Z,12.13
2024-02-15T02:54:21.226Z,12.12
2024-02-15T02:55:21.312Z,12.10
2024-02-15T02:56:21.392Z,12.10
2024-02-15T02:57:21.467Z,12.09
2024-02-15T02:58:21.527Z,12.09
2024-02-15T02:59:21.627Z,12.10
2024-02-15T03:00:21.696Z,12.12
2024-02-15T03:01:21.825Z,12.10
2024-02-15T03:02:21.828Z,12.12
2024-02-15T03:03:21.919Z,12.12
2024-02-15T03:04:22.059Z,12.10
2024-02-15T03:05:22.833Z,12.10
2024-02-15T03:06:22.237Z,12.13
2024-02-15T03:07:22.209Z,12.13
2024-02-15T03:08:22.306Z,12.13
2024-02-15T03:09:22.363Z,12.12
2024-02-15T03:10:22.433Z,12.12
2024-02-15T03:11:22.518Z,12.10
2024-02-15T03:12:22.588Z,12.09
2024-02-15T03:13:22.683Z,12.10
2024-02-15T03:14:22.761Z,12.10
2024-02-15T03:15:22.825Z,12.12
2024-02-15T03:16:22.932Z,12.12
2024-02-15T03:17:23.026Z,12.12
2024-02-15T03:18:23.128Z,12.12
2024-02-15T03:19:23.183Z,12.12
2024-02-15T03:20:24.043Z,12.12
2024-02-15T03:21:23.336Z,12.10
2024-02-15T03:22:23.440Z,12.10
2024-02-15T03:23:23.504Z,12.10
2024-02-15T03:24:23.573Z,12.12
2024-02-15T03:25:23.758Z,12.12
2024-02-15T03:26:23.737Z,12.13
2024-02-15T03:27:23.834Z,12.12
2024-02-15T03:28:23.912Z,12.13
2024-02-15T03:29:23.999Z,12.13
2024-02-15T03:30:24.092Z,12.12
2024-02-15T03:31:24.159Z,12.12
2024-02-15T03:32:24.256Z,12.10
2024-02-15T03:33:24.363Z,12.09
2024-02-15T03:34:24.586Z,12.09
2024-02-15T03:35:24.701Z,12.07
2024-02-15T03:36:24.527Z,12.07
2024-02-15T03:37:24.621Z,12.07
2024-02-15T03:38:24.682Z,12.04
2024-02-15T03:39:25.018Z,12.07
2024-02-15T03:40:24.846Z,12.06
2024-02-15T03:41:24.948Z,12.06
2024-02-15T03:42:25.005Z,12.06
2024-02-15T03:43:25.068Z,12.06
2024-02-15T03:44:25.150Z,12.04
2024-02-15T03:45:25.207Z,12.07
2024-02-15T03:46:25.338Z,12.06
2024-02-15T03:47:25.381Z,12.06
2024-02-15T03:48:25.489Z,12.04
2024-02-15T03:49:25.572Z,12.03
2024-02-15T03:50:25.612Z,12.03
2024-02-15T03:51:25.706Z,12.03
2024-02-15T03:52:25.747Z,12.03
2024-02-15T03:53:25.812Z,12.03
2024-02-15T03:54:25.900Z,12.04
2024-02-15T03:55:25.984Z,12.04
2024-02-15T03:56:26.046Z,12.03
2024-02-15T03:57:26.112Z,12.04
2024-02-15T03:58:26.196Z,12.06
2024-02-15T03:59:26.321Z,12.04
2024-02-15T04:00:26.889Z,12.06
2024-02-15T04:01:26.503Z,12.06
2024-02-15T04:02:26.473Z,12.04
2024-02-15T04:03:26.547Z,12.03
2024-02-15T04:04:26.670Z,12.00
2024-02-15T04:05:26.712Z,12.02
2024-02-15T04:06:26.836Z,12.02
2024-02-15T04:07:26.837Z,12.03
2024-02-15T04:08:26.915Z,12.03
2024-02-15T04:09:27.017Z,12.00
2024-02-15T04:10:27.068Z,12.00
2024-02-15T04:11:27.150Z,12.02
2024-02-15T04:12:27.242Z,12.00
2024-02-15T04:13:27.316Z,12.03
2024-02-15T04:14:27.396Z,12.03
2024-02-15T04:15:27.492Z,12.04
2024-02-15T04:16:27.564Z,12.02
2024-02-15T04:17:27.689Z,12.02
2024-02-15T04:18:27.816Z,12.02
2024-02-15T04:19:27.883Z,12.00
2024-02-15T04:20:27.886Z,12.00
2024-02-15T04:21:27.952Z,12.00
2024-02-15T04:22:28.028Z,12.02
2024-02-15T04:23:28.101Z,12.00
2024-02-15T04:24:28.162Z,12.00
2024-02-15T04:25:28.270Z,11.99
2024-02-15T04:26:28.376Z,12.00
2024-02-15T04:27:28.400Z,12.00
2024-02-15T04:28:28.523Z,12.00
2024-02-15T04:29:28.546Z,11.99
2024-02-15T04:30:28.640Z,11.97
2024-02-15T04:31:28.817Z,11.97
2024-02-15T04:32:28.777Z,11.95
2024-02-15T04:33:29.072Z,11.97
2024-02-15T04:34:29.049Z,11.99
2024-02-15T04:35:29.127Z,11.99
2024-02-15T04:36:29.120Z,12.00
2024-02-15T04:37:29.174Z,12.02
2024-02-15T04:38:29.237Z,12.00
2024-02-15T04:39:29.342Z,12.03
2024-02-15T04:40:29.446Z,12.03
2024-02-15T04:41:29.479Z,12.02
2024-02-15T04:42:29.533Z,12.02
2024-02-15T04:43:29.615Z,12.02
2024-02-15T04:44:29.709Z,12.02
2024-02-15T04:45:29.773Z,12.02
2024-02-15T04:46:29.843Z,12.02
2024-02-15T04:47:29.976Z,12.04
2024-02-15T04:48:30.109Z,12.03
2024-02-15T04:49:30.216Z,12.03
2024-02-15T04:50:30.389Z,12.02
2024-02-15T04:51:30.221Z,12.00
2024-02-15T04:52:30.284Z,12.00
2024-02-15T04:53:30.348Z,12.02
2024-02-15T04:54:30.449Z,12.02
2024-02-15T04:55:30.504Z,12.00
2024-02-15T04:56:30.664Z,11.99
2024-02-15T04:57:30.673Z,11.97
2024-02-15T04:58:30.775Z,11.97
2024-02-15T04:59:30.821Z,11.97
2024-02-15T05:00:30.941Z,11.97
2024-02-15T05:01:30.995Z,11.99
2024-02-15T05:02:31.135Z,11.99
2024-02-15T05:03:31.172Z,11.97
2024-02-15T05:04:31.238Z,11.99
2024-02-15T05:05:31.414Z,11.95
2024-02-15T05:06:31.412Z,11.97
2024-02-15T05:07:31.425Z,11.97
2024-02-15T05:08:31.545Z,11.95
2024-02-15T05:09:31.577Z,11.94
2024-02-15T05:10:31.702Z,11.94
2024-02-15T05:11:31.748Z,11.91
2024-02-15T05:12:31.827Z,11.90
2024-02-15T05:13:31.892Z,11.90
2024-02-15T05:14:32.058Z,11.91
2024-02-15T05:15:32.118Z,11.88
2024-02-15T05:16:32.142Z,11.87
2024-02-15T05:17:32.307Z,11.86
2024-02-15T05:18:32.389Z,11.84
2024-02-15T05:19:32.405Z,11.84
2024-02-15T05:20:32.494Z,11.80
2024-02-15T05:21:32.524Z,11.81
2024-02-15T05:22:32.654Z,11.81
2024-02-15T05:23:32.764Z,11.83
2024-02-15T05:24:32.778Z,11.84
2024-02-15T05:25:32.804Z,11.90
2024-02-15T05:26:32.954Z,11.87
2024-02-15T05:27:32.983Z,11.87
2024-02-15T05:28:33.115Z,11.86
2024-02-15T05:29:33.181Z,11.87
2024-02-15T05:30:33.213Z,11.86
2024-02-15T05:31:33.287Z,11.83
2024-02-15T05:32:33.438Z,11.83
2024-02-15T05:33:33.499Z,11.81
2024-02-15T05:34:33.712Z,11.80
2024-02-15T05:35:33.722Z,11.80
2024-02-15T05:36:33.666Z,11.83
2024-02-15T05:37:33.725Z,11.81
2024-02-15T05:38:33.797Z,11.81
2024-02-15T05:39:34.009Z,11.81
2024-02-15T05:40:34.066Z,11.81
2024-02-15T05:41:34.120Z,11.84
2024-02-15T05:42:34.114Z,11.83
2024-02-15T05:43:35.967Z,11.84
2024-02-15T05:44:34.276Z,11.84
2024-02-15T05:45:34.895Z,11.80
2024-02-15T05:46:34.424Z,11.83
2024-02-15T05:47:34.533Z,11.84
2024-02-15T05:48:34.702Z,11.83
2024-02-15T05:49:34.750Z,11.83
2024-02-15T05:50:34.771Z,11.84
2024-02-15T05:51:35.095Z,11.86
2024-02-15T05:52:34.850Z,11.87
2024-02-15T05:53:34.962Z,11.84
2024-02-15T05:54:35.012Z,11.81
2024-02-15T05:55:35.230Z,11.83
2024-02-15T05:56:35.165Z,11.81
2024-02-15T05:57:35.225Z,11.83
2024-02-15T05:58:35.408Z,11.83
2024-02-15T05:59:35.380Z,11.83
2024-02-15T06:00:35.763Z,11.84
2024-02-15T06:01:35.627Z,11.83
2024-02-15T06:02:35.846Z,11.81
2024-02-15T06:03:35.818Z,11.81
2024-02-15T06:04:35.871Z,11.77
2024-02-15T06:05:36.150Z,11.75
2024-02-15T06:06:36.127Z,11.73
2024-02-15T06:07:36.184Z,11.73
2024-02-15T06:08:36.155Z,11.72
2024-02-15T06:09:36.237Z,11.70
2024-02-15T06:10:36.229Z,11.69
2024-02-15T06:11:36.307Z,11.70
2024-02-15T06:12:36.416Z,11.69
2024-02-15T06:13:36.404Z,11.70
2024-02-15T06:14:36.502Z,11.73
2024-02-15T06:15:36.550Z,11.73
2024-02-15T06:16:36.679Z,11.72
2024-02-15T06:17:36.836Z,11.72
2024-02-15T06:18:37.125Z,11.73
2024-02-15T06:19:36.901Z,11.73
2024-02-15T06:20:37.006Z,11.72
2024-02-15T06:21:37.229Z,11.73
2024-02-15T06:22:37.169Z,11.75
2024-02-15T06:23:37.250Z,11.73
2024-02-15T06:24:37.303Z,11.75
2024-02-15T06:25:37.350Z,11.77
2024-02-15T06:26:37.447Z,11.80
2024-02-15T06:27:37.509Z,11.78
2024-02-15T06:28:37.577Z,11.80
2024-02-15T06:29:37.724Z,11.81
2024-02-15T06:30:37.785Z,11.80
2024-02-15T06:31:37.853Z,11.81
2024-02-15T06:32:38.016Z,11.81
2024-02-15T06:33:38.221Z,11.80
2024-02-15T06:34:38.160Z,11.78
2024-02-15T06:35:38.221Z,11.80
2024-02-15T06:36:38.272Z,11.78
2024-02-15T06:37:38.297Z,11.80
2024-02-15T06:38:38.457Z,11.81
2024-02-15T06:39:38.576Z,11.81
2024-02-15T06:40:38.610Z,11.83
2024-02-15T06:41:39.617Z,11.83
2024-02-15T06:43:26.643Z,11.84
2024-02-15T06:43:38.781Z,11.83
2024-02-15T06:44:38.859Z,11.83
2024-02-15T06:45:38.900Z,11.83
2024-02-15T06:46:39.159Z,11.86
2024-02-15T06:47:39.170Z,11.87
2024-02-15T06:48:39.611Z,11.90
2024-02-15T06:49:39.267Z,11.91
2024-02-15T06:50:39.334Z,11.94
2024-02-15T06:51:39.456Z,11.95
2024-02-15T06:52:39.669Z,11.94
2024-02-15T06:53:39.918Z,11.95
2024-02-15T06:54:40.115Z,11.99
2024-02-15T06:55:39.805Z,12.00
2024-02-15T06:56:40.024Z,12.00
2024-02-15T06:57:40.810Z,12.03
2024-02-15T06:58:40.002Z,12.04
2024-02-15T06:59:40.297Z,12.06
2024-02-15T07:00:40.152Z,12.04
2024-02-15T07:01:40.246Z,12.03
2024-02-15T07:02:40.362Z,12.04
2024-02-15T07:03:40.612Z,12.03
2024-02-15T07:04:40.525Z,12.04
2024-02-15T07:05:40.752Z,12.06
2024-02-15T07:06:40.919Z,12.06
2024-02-15T07:07:40.874Z,12.07
2024-02-15T07:08:40.907Z,12.07
2024-02-15T07:09:40.884Z,12.07
2024-02-15T07:10:41.023Z,12.09
2024-02-15T07:11:41.522Z,12.07
2024-02-15T07:12:41.175Z,12.10
2024-02-15T07:13:41.156Z,12.09
2024-02-15T07:14:41.491Z,12.09
2024-02-15T07:15:41.375Z,12.10
2024-02-15T07:16:41.444Z,12.10
2024-02-15T07:17:41.635Z,12.10
2024-02-15T07:18:41.768Z,12.10
2024-02-15T07:19:41.679Z,12.09
2024-02-15T07:20:41.954Z,12.09
2024-02-15T07:21:41.799Z,12.09
2024-02-15T07:22:41.901Z,12.09
2024-02-15T07:23:41.988Z,12.09
2024-02-15T07:24:42.079Z,12.09
2024-02-15T07:25:42.093Z,12.09
2024-02-15T07:26:42.321Z,12.07
2024-02-15T07:27:42.285Z,12.07
2024-02-15T07:28:42.369Z,12.07
2024-02-15T07:29:42.602Z,12.06
2024-02-15T07:30:42.590Z,12.06
2024-02-15T07:31:42.622Z,12.04
2024-02-15T07:32:42.785Z,12.03
2024-02-15T07:33:42.972Z,12.03
2024-02-15T07:34:43.094Z,12.02
2024-02-15T07:35:42.907Z,12.00
2024-02-15T07:36:42.959Z,11.97
2024-02-15T07:37:43.039Z,11.97
2024-02-15T07:38:43.169Z,11.97
2024-02-15T07:39:43.240Z,11.97
2024-02-15T07:40:43.311Z,11.95
2024-02-15T07:41:43.412Z,11.94
2024-02-15T07:42:43.482Z,11.91
2024-02-15T07:43:43.558Z,11.94
2024-02-15T07:44:43.624Z,11.91
2024-02-15T07:45:43.741Z,11.91
2024-02-15T07:46:43.807Z,11.94
2024-02-15T07:47:43.917Z,11.95
2024-02-15T07:48:44.091Z,11.97
2024-02-15T07:49:44.100Z,11.95
2024-02-15T07:50:44.159Z,11.95
2024-02-15T07:51:44.223Z,11.97
2024-02-15T07:52:44.292Z,11.95
2024-02-15T07:53:44.463Z,11.97
2024-02-15T07:54:44.472Z,11.97
2024-02-15T07:55:50.686Z,11.97
2024-02-15T07:56:44.686Z,11.97
2024-02-15T07:57:44.741Z,11.99
2024-02-15T07:58:46.206Z,11.99
2024-02-15T07:59:44.939Z,12.00
2024-02-15T08:00:45.097Z,12.03
2024-02-15T08:01:45.098Z,12.03
2024-02-15T08:02:45.202Z,12.04
2024-02-15T08:03:45.294Z,12.03
2024-02-15T08:04:45.470Z,12.06
2024-02-15T08:05:45.539Z,12.07
2024-02-15T08:06:45.759Z,12.06
2024-02-15T08:07:45.592Z,12.06
2024-02-15T08:08:45.690Z,12.06
2024-02-15T08:09:45.717Z,12.04
2024-02-15T08:10:45.811Z,12.04
2024-02-15T08:11:45.961Z,12.04
2024-02-15T08:12:46.001Z,12.06
2024-02-15T08:13:46.117Z,12.04
2024-02-15T08:14:46.148Z,12.04
2024-02-15T08:15:46.229Z,12.06
2024-02-15T08:16:46.358Z,12.04
2024-02-15T08:17:46.462Z,12.04
2024-02-15T08:18:46.540Z,12.06
2024-02-15T08:19:47.596Z,12.06
2024-02-15T08:20:46.635Z,12.06
2024-02-15T08:21:46.663Z,12.07
2024-02-15T08:22:46.753Z,12.07
2024-02-15T08:23:46.829Z,12.09
2024-02-15T08:24:46.864Z,12.10
2024-02-15T08:25:46.960Z,12.12
2024-02-15T08:26:47.078Z,12.13
2024-02-15T08:27:47.148Z,12.15
2024-02-15T08:28:47.276Z,12.17
2024-02-15T08:29:47.306Z,12.18
2024-02-15T08:30:47.381Z,12.17
2024-02-15T08:31:47.441Z,12.17
2024-02-15T08:32:47.603Z,12.17
2024-02-15T08:33:47.792Z,12.18
2024-02-15T08:34:47.782Z,12.18
2024-02-15T08:35:49.493Z,12.18
2024-02-15T08:36:47.929Z,12.20
2024-02-15T08:37:47.993Z,12.20
2024-02-15T08:38:48.080Z,12.18
2024-02-15T08:39:48.134Z,12.20
2024-02-15T08:40:48.199Z,12.17
2024-02-15T08:41:48.328Z,12.18
2024-02-15T08:42:48.372Z,12.15
2024-02-15T08:43:48.433Z,12.18
2024-02-15T08:44:48.489Z,12.18
2024-02-15T08:45:48.576Z,12.18
2024-02-15T08:46:49.806Z,12.18
2024-02-15T08:47:48.768Z,12.18
2024-02-15T08:48:49.000Z,12.20
2024-02-15T08:49:48.905Z,12.20
2024-02-15T08:50:48.945Z,12.20
2024-02-15T08:51:49.042Z,12.20
2024-02-15T08:52:49.064Z,12.20
2024-02-15T08:53:49.228Z,12.22
2024-02-15T08:54:49.221Z,12.22
2024-02-15T08:55:49.290Z,12.25
2024-02-15T08:56:49.375Z,12.27
2024-02-15T08:57:49.487Z,12.27
2024-02-15T08:58:49.584Z,12.28
2024-02-15T08:59:49.660Z,12.31
2024-02-15T09:00:49.759Z,12.35
2024-02-15T09:01:49.794Z,12.36
2024-02-15T09:02:50.028Z,12.37
2024-02-15T09:03:50.193Z,12.40
2024-02-15T09:04:50.110Z,12.42
2024-02-15T09:05:50.387Z,12.45
2024-02-15T09:06:50.308Z,12.43
2024-02-15T09:07:50.328Z,12.46
2024-02-15T09:08:50.516Z,12.46
2024-02-15T09:09:50.493Z,12.46
2024-02-15T09:10:50.625Z,12.47
2024-02-15T09:11:50.722Z,12.47
2024-02-15T09:12:51.170Z,12.46
2024-02-15T09:13:50.823Z,12.45
2024-02-15T09:14:50.925Z,12.45
2024-02-15T09:15:50.952Z,12.42
2024-02-15T09:16:51.049Z,12.42
2024-02-15T09:17:51.168Z,12.40
2024-02-15T09:18:51.458Z,12.42
2024-02-15T09:19:51.338Z,12.39
2024-02-15T09:20:51.357Z,12.37
2024-02-15T09:21:51.395Z,12.36
2024-02-15T09:22:51.557Z,12.36
2024-02-15T09:23:51.650Z,12.35
2024-02-15T09:24:51.597Z,12.35
2024-02-15T09:25:51.692Z,12.32
2024-02-15T09:26:51.770Z,12.32
2024-02-15T09:27:51.887Z,12.31
2024-02-15T09:28:51.932Z,12.31
2024-02-15T09:29:52.071Z,12.31
2024-02-15T09:30:52.120Z,12.31
2024-02-15T09:31:52.211Z,12.31
2024-02-15T09:32:52.445Z,12.29
2024-02-15T09:33:52.454Z,12.29
2024-02-15T09:34:52.511Z,12.29
2024-02-15T09:35:52.605Z,12.29
2024-02-15T09:36:52.663Z,12.29
2024-02-15T09:37:52.739Z,12.29
2024-02-15T09:38:52.902Z,12.29
2024-02-15T09:39:52.878Z,12.28
2024-02-15T09:40:52.941Z,12.27
2024-02-15T09:41:53.044Z,12.27
2024-02-15T09:42:53.119Z,12.29
2024-02-15T09:43:53.255Z,12.29
2024-02-15T09:44:53.284Z,12.31
2024-02-15T09:45:53.384Z,12.29
2024-02-15T09:46:53.427Z,12.31
2024-02-15T09:47:53.586Z,12.32
2024-02-15T09:48:53.730Z,12.35
2024-02-15T09:49:53.779Z,12.35
2024-02-15T09:50:53.854Z,12.35
2024-02-15T09:51:53.855Z,12.36
2024-02-15T09:52:53.927Z,12.35
2024-02-15T09:53:54.021Z,12.35
2024-02-15T09:54:54.061Z,12.37
2024-02-15T09:55:54.188Z,12.37
2024-02-15T09:56:54.292Z,12.37
2024-02-15T09:57:54.371Z,12.37
2024-02-15T09:58:54.397Z,12.39
2024-02-15T09:59:54.529Z,12.40
2024-02-15T10:00:54.562Z,12.42
2024-02-15T10:01:54.657Z,12.45
2024-02-15T10:02:55.040Z,12.46
2024-02-15T10:03:54.894Z,12.47
2024-02-15T10:04:55.017Z,12.50
2024-02-15T10:05:55.079Z,12.55
2024-02-15T10:06:55.155Z,12.55
2024-02-15T10:07:55.215Z,12.58
2024-02-15T10:08:55.245Z,12.60
2024-02-15T10:09:56.781Z,12.62
2024-02-15T10:10:55.446Z,12.64
2024-02-15T10:11:55.543Z,12.65
2024-02-15T10:12:55.665Z,12.68
2024-02-15T10:13:55.675Z,12.68
2024-02-15T10:14:55.767Z,12.68
2024-02-15T10:15:55.806Z,12.70
2024-02-15T10:16:55.889Z,12.68
2024-02-15T10:17:56.124Z,12.68
2024-02-15T10:18:56.091Z,12.68
2024-02-15T10:19:56.190Z,12.67
2024-02-15T10:20:56.245Z,12.67
2024-02-15T10:21:56.276Z,12.67
2024-02-15T10:22:56.376Z,12.67
2024-02-15T10:23:56.495Z,12.67
2024-02-15T10:24:56.540Z,12.70
2024-02-15T10:25:56.667Z,12.73
2024-02-15T10:26:56.728Z,12.75
2024-02-15T10:27:56.773Z,12.73
2024-02-15T10:28:56.797Z,12.72
2024-02-15T10:29:56.921Z,12.73
2024-02-15T10:30:57.054Z,12.75
2024-02-15T10:31:57.161Z,12.78
2024-02-15T10:32:58.233Z,12.82
2024-02-15T10:33:57.459Z,12.82
2024-02-15T10:34:57.371Z,12.85
2024-02-15T10:35:57.474Z,12.86
2024-02-15T10:36:57.518Z,12.91
2024-02-15T10:37:57.585Z,12.93
2024-02-15T10:38:57.676Z,12.97
2024-02-15T10:39:57.726Z,12.98
2024-02-15T10:40:57.816Z,12.97
2024-02-15T10:41:57.912Z,12.98
2024-02-15T10:42:58.043Z,13.00
2024-02-15T10:43:58.016Z,13.05
2024-02-15T10:44:58.123Z,13.05
2024-02-15T10:45:58.202Z,13.05
2024-02-15T10:46:58.268Z,13.09
2024-02-15T10:47:58.456Z,13.09
2024-02-15T10:48:58.576Z,13.09
2024-02-15T10:49:58.572Z,13.12
2024-02-15T10:50:58.641Z,13.13
2024-02-15T10:51:58.729Z,13.11
2024-02-15T10:52:58.764Z,13.08
2024-02-15T10:53:58.899Z,13.08
2024-02-15T10:54:58.908Z,13.09
2024-02-15T10:55:59.038Z,13.09
2024-02-15T10:56:59.188Z,13.13
2024-02-15T10:57:59.188Z,13.16
2024-02-15T10:58:59.218Z,13.18
2024-02-15T10:59:59.542Z,13.22
2024-02-15T11:00:59.498Z,13.23
2024-02-15T11:01:59.603Z,13.23
2024-02-15T11:02:59.644Z,13.25
2024-02-15T11:03:59.663Z,13.27
2024-02-15T11:04:59.733Z,13.25
2024-02-15T11:05:59.943Z,13.28
2024-02-15T11:07:00.095Z,13.28
2024-02-15T11:08:00.055Z,13.28
2024-02-15T11:09:00.078Z,13.28
2024-02-15T11:10:00.239Z,13.28
2024-02-15T11:11:00.388Z,13.30
2024-02-15T11:12:00.399Z,13.35
2024-02-15T11:13:00.436Z,13.35
2024-02-15T11:14:00.508Z,13.33
2024-02-15T11:15:00.727Z,13.33
2024-02-15T11:16:00.643Z,13.38
2024-02-15T11:17:00.742Z,13.39
2024-02-15T11:18:00.877Z,13.38
2024-02-15T11:19:01.036Z,13.39
2024-02-15T11:20:01.056Z,13.42
2024-02-15T11:21:01.118Z,13.52
2024-02-15T11:22:01.144Z,13.54
2024-02-15T11:23:01.202Z,13.57
2024-02-15T11:24:01.389Z,13.68
2024-02-15T11:25:04.427Z,13.79
2024-02-15T11:26:01.446Z,13.87
2024-02-15T11:27:01.622Z,13.92
2024-02-15T11:28:01.687Z,14.03
2024-02-15T11:29:01.690Z,14.08
2024-02-15T11:30:01.873Z,14.15
2024-02-15T11:31:01.870Z,14.14
2024-02-15T11:32:01.961Z,14.20
2024-02-15T11:33:02.130Z,14.29
2024-02-15T11:34:02.265Z,14.36
2024-02-15T11:35:02.265Z,14.47
2024-02-15T11:36:02.351Z,14.48
2024-02-15T11:37:02.377Z,14.41
2024-02-15T11:38:02.493Z,14.32
2024-02-15T11:39:02.600Z,14.17
2024-02-15T11:40:02.706Z,14.05
2024-02-15T11:41:02.717Z,13.92
2024-02-15T11:42:02.840Z,13.90
2024-02-15T11:43:03.106Z,13.93
2024-02-15T11:44:03.001Z,13.92
2024-02-15T11:45:03.118Z,13.97
2024-02-15T11:46:03.160Z,14.00
2024-02-15T11:47:03.223Z,14.03
2024-02-15T11:48:03.853Z,14.07
2024-02-15T11:49:03.462Z,14.11
2024-02-15T11:50:03.584Z,14.11
2024-02-15T11:51:03.612Z,14.14
2024-02-15T11:52:03.685Z,14.17
2024-02-15T11:53:03.752Z,14.15
2024-02-15T11:54:03.909Z,14.15
2024-02-15T11:55:03.921Z,14.15
2024-02-15T11:56:03.968Z,14.25
2024-02-15T11:57:04.082Z,14.28
2024-02-15T11:58:04.314Z,14.28
2024-02-15T11:59:04.249Z,14.28
2024-02-15T12:00:04.434Z,14.28
2024-02-15T12:01:04.442Z,14.35
2024-02-15T12:02:04.446Z,14.36
2024-02-15T12:03:04.645Z,14.37
2024-02-15T12:04:07.604Z,14.41
2024-02-15T12:05:04.759Z,14.45
2024-02-15T12:06:05.131Z,14.36
2024-02-15T12:07:05.111Z,14.41
2024-02-15T12:08:05.020Z,14.44
2024-02-15T12:09:05.290Z,14.45
2024-02-15T12:10:06.887Z,14.44
2024-02-15T12:11:05.267Z,14.47
2024-02-15T12:12:05.420Z,14.40
2024-02-15T12:13:05.431Z,14.36
2024-02-15T12:14:05.569Z,14.37
2024-02-15T12:15:05.658Z,14.36
2024-02-15T12:16:05.696Z,14.40
2024-02-15T12:17:05.770Z,14.40
2024-02-15T12:18:06.114Z,14.40
2024-02-15T12:19:06.116Z,14.45
2024-02-15T12:20:06.028Z,14.43
2024-02-15T12:21:06.150Z,14.45
2024-02-15T12:22:06.492Z,14.48
2024-02-15T12:23:06.254Z,14.54
2024-02-15T12:24:06.300Z,14.55
2024-02-15T12:25:06.374Z,14.54
2024-02-15T12:26:06.549Z,14.62
2024-02-15T12:27:06.713Z,14.60
2024-02-15T12:28:06.921Z,14.70
2024-02-15T12:29:06.721Z,14.77
2024-02-15T12:30:06.914Z,14.81
2024-02-15T12:31:06.923Z,14.79
2024-02-15T12:32:06.962Z,14.77
2024-02-15T12:33:07.153Z,14.77
2024-02-15T12:34:07.213Z,14.78
2024-02-15T12:35:07.271Z,14.77
2024-02-15T12:36:07.459Z,14.78
2024-02-15T12:37:07.397Z,14.79
2024-02-15T12:38:07.512Z,14.86
2024-02-15T12:39:07.583Z,14.94
2024-02-15T12:40:07.598Z,15.02
2024-02-15T12:41:07.751Z,15.09
2024-02-15T12:42:07.881Z,15.17
2024-02-15T12:43:07.886Z,15.28
2024-02-15T12:44:07.978Z,15.39
2024-02-15T12:45:08.068Z,15.37
2024-02-15T12:46:09.924Z,15.31
2024-02-15T12:47:08.290Z,15.24
2024-02-15T12:48:08.378Z,15.25
2024-02-15T12:49:08.504Z,15.24
2024-02-15T12:50:08.435Z,15.22
2024-02-15T12:51:08.590Z,15.27
2024-02-15T12:52:08.564Z,15.37
2024-02-15T12:53:08.663Z,15.49